createdAt,value
2023-05-13T00:00:50.319Z,3.63
2023-05-13T00:03:18.699Z,3.35
2023-05-13T00:05:48.662Z,4.30
2023-05-13T00:08:17.017Z,4.85
2023-05-13T00:10:45.391Z,4.78
2023-05-13T00:13:13.774Z,4.93
2023-05-13T00:15:42.376Z,4.78
2023-05-13T00:18:11.152Z,4.18
2023-05-13T00:20:39.529Z,5.07
2023-05-13T00:23:09.295Z,5.05
2023-05-13T00:25:37.672Z,3.60
2023-05-13T00:28:06.124Z,3.40
2023-05-13T00:30:34.521Z,3.42
2023-05-13T00:33:02.932Z,3.42
2023-05-13T00:35:31.324Z,3.80
2023-05-13T00:37:59.756Z,3.67
2023-05-13T00:40:29.454Z,3.60
2023-05-13T00:42:57.821Z,3.95
2023-05-13T00:45:26.145Z,5.85
2023-05-13T00:47:54.657Z,5.03
2023-05-13T00:50:23.446Z,3.45
2023-05-13T00:52:52.462Z,5.25
2023-05-13T00:55:20.899Z,3.95
2023-05-13T00:57:50.651Z,5.60
2023-05-13T01:00:27.111Z,5.85
2023-05-13T01:02:59.546Z,6.20
2023-05-13T01:05:33.287Z,4.05
2023-05-13T01:08:05.887Z,4.68
2023-05-13T01:10:38.455Z,5.95
2023-05-13T01:13:09.784Z,5.38
2023-05-13T01:15:41.841Z,6.13
2023-05-13T01:18:12.176Z,6.68
2023-05-13T01:20:43.626Z,6.75
2023-05-13T01:23:13.635Z,4.93
2023-05-13T01:25:42.381Z,7.18
2023-05-13T01:28:11.093Z,5.50
2023-05-13T01:30:39.452Z,4.72
2023-05-13T01:33:08.021Z,4.00
2023-05-13T01:35:36.601Z,4.05
2023-05-13T01:38:05.754Z,4.45
2023-05-13T01:40:35.862Z,4.47
2023-05-13T01:43:04.399Z,5.32
2023-05-13T01:45:33.245Z,5.30
2023-05-13T01:48:01.742Z,4.28
2023-05-13T01:50:30.178Z,4.10
2023-05-13T01:52:58.844Z,3.72
2023-05-13T01:55:27.273Z,3.80
2023-05-13T01:57:57.051Z,4.25
2023-05-13T02:00:25.526Z,6.60
2023-05-13T02:02:53.967Z,5.68
2023-05-13T02:05:22.545Z,5.30
2023-05-13T02:07:51.261Z,5.03
2023-05-13T02:10:19.940Z,4.10
2023-05-13T02:12:48.575Z,4.90
2023-05-13T02:15:18.353Z,5.55
2023-05-13T02:17:46.712Z,6.70
2023-05-13T02:20:16.148Z,6.50
2023-05-13T02:22:44.510Z,7.53
2023-05-13T02:25:12.940Z,6.95
2023-05-13T02:27:41.269Z,5.88
2023-05-13T02:30:10.098Z,4.55
2023-05-13T02:32:42.811Z,8.05
2023-05-13T02:35:11.774Z,8.68
2023-05-13T02:37:40.256Z,9.25
2023-05-13T02:40:09.200Z,7.63
2023-05-13T02:42:37.587Z,6.05
2023-05-13T02:45:06.225Z,5.30
2023-05-13T02:47:34.598Z,4.80
2023-05-13T02:50:06.255Z,5.13
2023-05-13T02:52:35.944Z,4.30
2023-05-13T02:55:04.433Z,4.90
2023-05-13T02:57:32.829Z,5.13
2023-05-13T03:00:01.173Z,4.32
2023-05-13T03:02:29.573Z,4.25
2023-05-13T03:04:58.248Z,5.45
2023-05-13T03:07:27.988Z,4.60
2023-05-13T03:09:56.371Z,6.38
2023-05-13T03:12:24.773Z,4.82
2023-05-13T03:14:53.153Z,4.35
2023-05-13T03:17:21.562Z,4.32
2023-05-13T03:19:49.975Z,4.30
2023-05-13T03:22:18.362Z,4.72
2023-05-13T03:24:48.085Z,4.30
2023-05-13T03:27:16.537Z,4.55
2023-05-13T03:29:44.871Z,5.18
2023-05-13T03:32:13.296Z,4.50
2023-05-13T03:34:41.719Z,4.43
2023-05-13T03:37:10.079Z,4.07
2023-05-13T03:39:38.434Z,8.80
2023-05-13T03:42:08.618Z,8.90
2023-05-13T03:44:37.046Z,8.65
2023-05-13T03:47:05.568Z,6.10
2023-05-13T03:49:33.970Z,4.15
2023-05-13T03:52:02.260Z,5.40
2023-05-13T03:54:30.679Z,6.07
2023-05-13T03:56:59.043Z,4.00
2023-05-13T03:59:28.782Z,4.00
2023-05-13T04:01:57.153Z,5.18
2023-05-13T04:04:25.638Z,8.30
2023-05-13T04:06:54.102Z,4.40
2023-05-13T04:09:22.490Z,4.57
2023-05-13T04:11:50.922Z,4.25
2023-05-13T04:14:19.327Z,4.10
2023-05-13T04:16:49.225Z,4.55
2023-05-13T04:19:17.591Z,5.13
2023-05-13T04:21:45.983Z,4.28
2023-05-13T04:24:14.362Z,4.70
2023-05-13T04:26:42.759Z,4.70
2023-05-13T04:29:11.129Z,4.43
2023-05-13T04:31:39.542Z,4.20
2023-05-13T04:34:09.336Z,4.80
2023-05-13T04:36:37.674Z,4.75
2023-05-13T04:39:06.031Z,5.35
2023-05-13T04:41:34.409Z,5.47
2023-05-13T04:44:02.797Z,4.78
2023-05-13T04:46:31.169Z,5.38
2023-05-13T04:48:59.583Z,5.05
2023-05-13T04:51:29.869Z,5.32
2023-05-13T04:53:58.753Z,6.88
2023-05-13T04:56:27.135Z,5.30
2023-05-13T04:58:55.504Z,4.63
2023-05-13T05:01:23.888Z,5.97
2023-05-13T05:03:52.313Z,8.23
2023-05-13T05:06:21.910Z,9.13
2023-05-13T05:08:51.831Z,9.13
2023-05-13T05:11:20.258Z,10.32
2023-05-13T05:13:48.666Z,6.82
2023-05-13T05:16:16.965Z,10.13
2023-05-13T05:18:45.371Z,10.30
2023-05-13T05:21:13.802Z,10.25
2023-05-13T05:23:42.395Z,10.15
2023-05-13T05:26:12.574Z,9.50
2023-05-13T05:28:41.159Z,10.13
2023-05-13T05:31:09.749Z,7.38
2023-05-13T05:33:38.333Z,9.40
2023-05-13T05:36:06.946Z,10.05
2023-05-13T05:38:35.355Z,7.32
2023-05-13T05:41:03.697Z,10.60
2023-05-13T05:43:33.516Z,11.13
2023-05-13T05:46:01.974Z,9.15
2023-05-13T05:48:32.041Z,10.75
2023-05-13T05:51:01.565Z,8.13
2023-05-13T05:53:29.918Z,9.82
2023-05-13T05:55:58.334Z,10.63
2023-05-13T05:58:27.277Z,8.82
2023-05-13T06:00:58.424Z,7.57
2023-05-13T06:03:26.886Z,6.45
2023-05-13T06:05:55.320Z,7.03
2023-05-13T06:08:29.917Z,8.73
2023-05-13T06:10:59.102Z,9.47
2023-05-13T06:13:27.565Z,8.07
2023-05-13T06:15:57.506Z,7.78
2023-05-13T06:18:25.930Z,7.88
2023-05-13T06:20:54.400Z,8.52
2023-05-13T06:23:22.758Z,8.13
2023-05-13T06:25:51.115Z,7.70
2023-05-13T06:28:19.493Z,9.40
2023-05-13T06:30:47.898Z,9.15
2023-05-13T06:33:17.664Z,8.52
2023-05-13T06:35:49.460Z,8.00
2023-05-13T06:38:18.787Z,8.10
2023-05-13T06:40:47.160Z,7.30
2023-05-13T06:43:16.512Z,8.65
2023-05-13T06:45:44.947Z,6.88
2023-05-13T06:48:13.388Z,8.80
2023-05-13T06:50:43.203Z,8.02
2023-05-13T06:53:12.625Z,8.48
2023-05-13T06:55:42.611Z,7.43
2023-05-13T06:58:11.297Z,7.97
2023-05-13T07:00:40.186Z,7.80
2023-05-13T07:03:09.046Z,7.55
2023-05-13T07:05:37.661Z,8.02
2023-05-13T07:08:08.593Z,6.68
2023-05-13T07:10:37.986Z,6.43
2023-05-13T07:13:06.570Z,7.80
2023-05-13T07:15:34.899Z,7.55
2023-05-13T07:18:03.342Z,7.25
2023-05-13T07:20:31.799Z,8.38
2023-05-13T07:23:00.179Z,7.38
2023-05-13T07:25:29.956Z,8.13
2023-05-13T07:27:58.286Z,8.60
2023-05-13T07:30:26.857Z,7.57
2023-05-13T07:32:55.305Z,6.82
2023-05-13T07:35:23.821Z,6.40
2023-05-13T07:37:52.407Z,7.57
2023-05-13T07:40:21.310Z,7.68
2023-05-13T07:42:51.680Z,8.38
2023-05-13T07:45:20.166Z,8.70
2023-05-13T07:47:48.745Z,8.85
2023-05-13T07:50:17.098Z,8.30
2023-05-13T07:52:48.996Z,7.78
2023-05-13T07:55:17.399Z,7.25
2023-05-13T07:57:45.822Z,7.43
2023-05-13T08:00:16.626Z,7.35
2023-05-13T08:02:45.387Z,6.82
2023-05-13T08:05:13.828Z,7.85
2023-05-13T08:07:42.281Z,8.95
2023-05-13T08:10:10.806Z,7.97
2023-05-13T08:12:40.396Z,7.10
2023-05-13T08:15:09.405Z,8.70
2023-05-13T08:17:39.361Z,6.25
2023-05-13T08:20:11.299Z,7.55
2023-05-13T08:22:39.680Z,7.65
2023-05-13T08:25:08.268Z,6.68
2023-05-13T08:27:36.742Z,6.80
2023-05-13T08:30:05.369Z,8.10
2023-05-13T08:32:33.787Z,6.72
2023-05-13T08:35:03.581Z,6.40
2023-05-13T08:37:31.922Z,7.20
2023-05-13T08:40:01.634Z,7.75
2023-05-13T08:42:30.623Z,6.80
2023-05-13T08:44:59.376Z,8.77
2023-05-13T08:47:32.861Z,6.82
2023-05-13T08:50:03.671Z,8.45
2023-05-13T08:52:33.384Z,6.97
2023-05-13T08:55:02.050Z,7.60
2023-05-13T08:57:30.448Z,7.90
2023-05-13T08:59:58.785Z,7.82
2023-05-13T09:02:27.728Z,8.75
2023-05-13T09:04:57.034Z,6.60
2023-05-13T09:07:26.780Z,7.65
2023-05-13T09:09:55.237Z,7.65
2023-05-13T09:12:41.963Z,6.78
2023-05-13T09:15:10.848Z,8.35
2023-05-13T09:17:39.683Z,7.45
2023-05-13T09:20:12.092Z,7.93
2023-05-13T09:22:46.754Z,7.07
2023-05-13T09:25:16.015Z,7.18
2023-05-13T09:27:45.243Z,6.95
2023-05-13T09:30:13.808Z,7.53
2023-05-13T09:32:42.757Z,5.30
2023-05-13T09:35:12.179Z,6.95
2023-05-13T09:37:40.567Z,6.53
2023-05-13T09:40:12.735Z,6.13
2023-05-13T09:42:42.780Z,6.03
2023-05-13T09:45:11.974Z,5.75
2023-05-13T09:47:40.607Z,5.45
2023-05-13T09:50:09.979Z,4.43
2023-05-13T09:52:38.971Z,5.10
2023-05-13T09:55:10.868Z,4.97
2023-05-13T09:57:40.863Z,5.30
2023-05-13T10:00:17.932Z,4.85
2023-05-13T10:02:49.854Z,5.72
2023-05-13T10:05:18.375Z,4.03
2023-05-13T10:07:46.752Z,3.90
2023-05-13T10:10:16.301Z,5.57
2023-05-13T10:12:44.646Z,3.85
2023-05-13T10:15:13.157Z,4.65
2023-05-13T10:17:42.484Z,4.53
2023-05-13T10:20:10.974Z,5.78
2023-05-13T10:22:40.059Z,5.53
2023-05-13T10:25:09.124Z,4.82
2023-05-13T10:27:40.347Z,5.88
2023-05-13T10:30:10.587Z,5.65
2023-05-13T10:32:40.264Z,5.38
2023-05-13T10:35:13.129Z,5.68
2023-05-13T10:38:00.837Z,5.18
2023-05-13T10:40:59.353Z,5.10
2023-05-13T10:43:30.667Z,5.18
2023-05-13T10:45:59.997Z,4.07
2023-05-13T10:48:28.562Z,4.95
2023-05-13T10:50:58.270Z,4.40
2023-05-13T10:53:27.527Z,4.32
2023-05-13T10:55:57.509Z,4.18
2023-05-13T10:58:32.408Z,4.78
2023-05-13T11:01:19.790Z,4.40
2023-05-13T11:03:55.152Z,3.90
2023-05-13T11:06:24.648Z,3.78
2023-05-13T11:08:55.749Z,4.40
2023-05-13T11:11:26.474Z,4.20
2023-05-13T11:13:56.879Z,3.90
2023-05-13T11:16:25.895Z,3.80
2023-05-13T11:18:54.732Z,3.83
2023-05-13T11:21:31.426Z,4.20
2023-05-13T11:24:00.272Z,3.70
2023-05-13T11:26:28.625Z,3.78
2023-05-13T11:29:05.780Z,4.22
2023-05-13T11:31:49.694Z,3.63
2023-05-13T11:34:18.902Z,3.30
2023-05-13T11:36:48.085Z,3.53
2023-05-13T11:39:17.326Z,3.55
2023-05-13T11:41:47.000Z,3.42
2023-05-13T11:44:16.114Z,3.78
2023-05-13T11:46:53.026Z,3.35
2023-05-13T11:49:34.416Z,3.63
2023-05-13T11:52:02.942Z,3.40
2023-05-13T11:54:31.437Z,1.83
2023-05-13T11:56:59.999Z,3.58
2023-05-13T11:59:35.746Z,2.97
2023-05-13T12:02:08.596Z,4.13
2023-05-13T12:04:37.314Z,3.28
2023-05-13T12:07:05.792Z,3.13
2023-05-13T12:09:34.154Z,3.47
2023-05-13T12:12:03.665Z,3.38
2023-05-13T12:14:33.301Z,2.90
2023-05-13T12:17:01.989Z,3.10
2023-05-13T12:19:31.854Z,3.45
2023-05-13T12:22:01.795Z,3.05
2023-05-13T12:24:35.107Z,2.85
2023-05-13T12:27:08.667Z,2.65
2023-05-13T12:29:42.469Z,2.65
2023-05-13T12:32:11.911Z,2.40
2023-05-13T12:34:41.680Z,2.67
2023-05-13T12:37:13.450Z,3.60
2023-05-13T12:39:42.726Z,2.70
2023-05-13T12:42:18.302Z,2.70
2023-05-13T12:44:46.865Z,2.33
2023-05-13T12:47:15.901Z,2.47
2023-05-13T12:49:55.727Z,2.58
2023-05-13T12:52:24.105Z,2.67
2023-05-13T12:54:52.471Z,2.80
2023-05-13T12:57:21.536Z,2.60
2023-05-13T12:59:49.856Z,2.67
2023-05-13T13:02:18.214Z,2.63
2023-05-13T13:04:46.554Z,2.47
2023-05-13T13:07:16.244Z,4.75
2023-05-13T13:09:44.659Z,2.83
2023-05-13T13:12:13.072Z,2.85
2023-05-13T13:14:41.797Z,2.13
2023-05-13T13:17:10.157Z,2.22
2023-05-13T13:19:38.543Z,2.47
2023-05-13T13:22:07.081Z,2.55
2023-05-13T13:24:36.989Z,2.80
2023-05-13T13:27:05.578Z,2.40
2023-05-13T13:29:33.993Z,2.50
2023-05-13T13:32:02.411Z,2.20
2023-05-13T13:34:30.826Z,2.53
2023-05-13T13:36:59.208Z,3.20
2023-05-13T13:39:27.957Z,2.63
2023-05-13T13:41:57.933Z,2.50
2023-05-13T13:44:27.448Z,2.47
2023-05-13T13:46:56.975Z,2.45
2023-05-13T13:49:25.355Z,2.45
2023-05-13T13:51:53.884Z,2.60
2023-05-13T13:54:22.445Z,2.60
2023-05-13T13:56:50.859Z,2.95
2023-05-13T13:59:20.635Z,2.53
2023-05-13T14:01:49.141Z,3.20
2023-05-13T14:04:19.863Z,3.38
2023-05-13T14:06:48.303Z,3.20
2023-05-13T14:09:16.642Z,2.25
2023-05-13T14:11:44.991Z,2.33
2023-05-13T14:14:13.552Z,2.67
2023-05-13T14:16:43.284Z,2.20
2023-05-13T14:19:12.827Z,2.47
2023-05-13T14:21:41.330Z,1.90
2023-05-13T14:24:11.987Z,2.80
2023-05-13T14:26:40.388Z,2.60
2023-05-13T14:29:08.776Z,2.35
2023-05-13T14:31:37.443Z,2.75
2023-05-13T14:34:08.136Z,2.47
2023-05-13T14:36:36.582Z,2.58
2023-05-13T14:39:04.963Z,2.88
2023-05-13T14:41:33.388Z,2.70
2023-05-13T14:44:02.108Z,3.13
2023-05-13T14:46:30.562Z,3.15
2023-05-13T14:48:58.934Z,3.13
2023-05-13T14:51:28.714Z,2.78
2023-05-13T14:53:57.044Z,2.10
2023-05-13T14:56:26.084Z,2.72
2023-05-13T14:58:54.644Z,2.72
2023-05-13T15:01:23.022Z,2.92
2023-05-13T15:03:51.368Z,2.80
2023-05-13T15:06:19.766Z,2.72
2023-05-13T15:08:49.479Z,3.00
2023-05-13T15:11:17.843Z,3.10
2023-05-13T15:13:46.181Z,2.67
2023-05-13T15:16:14.302Z,2.50
2023-05-13T15:18:42.427Z,3.15
2023-05-13T15:21:10.544Z,3.10
2023-05-13T15:23:38.640Z,2.97
2023-05-13T15:26:08.169Z,2.95
2023-05-13T15:28:36.258Z,3.67
2023-05-13T15:31:04.525Z,3.05
2023-05-13T15:33:33.148Z,3.40
2023-05-13T15:36:01.433Z,3.50
2023-05-13T15:38:29.520Z,3.03
2023-05-13T15:40:57.636Z,3.03
2023-05-13T15:43:27.130Z,3.30
2023-05-13T15:45:55.968Z,3.30
2023-05-13T15:48:24.304Z,2.83
2023-05-13T15:50:52.401Z,2.92
2023-05-13T15:53:20.801Z,3.63
2023-05-13T15:55:48.927Z,3.40
2023-05-13T15:58:16.986Z,3.80
2023-05-13T16:00:46.405Z,4.78
2023-05-13T16:03:15.280Z,3.35
2023-05-13T16:05:44.062Z,3.40
2023-05-13T16:08:12.168Z,3.80
2023-05-13T16:10:40.219Z,3.42
2023-05-13T16:13:08.512Z,3.50
2023-05-13T16:15:36.979Z,2.95
2023-05-13T16:18:07.155Z,3.03
2023-05-13T16:20:35.265Z,4.05
2023-05-13T16:23:03.385Z,3.70
2023-05-13T16:25:31.442Z,3.50
2023-05-13T16:27:59.508Z,3.78
2023-05-13T16:30:27.562Z,3.90
2023-05-13T16:32:55.784Z,3.65
2023-05-13T16:35:25.355Z,3.72
2023-05-13T16:37:53.459Z,3.40
2023-05-13T16:40:21.755Z,3.60
2023-05-13T16:42:49.924Z,3.60
2023-05-13T16:45:18.170Z,3.70
2023-05-13T16:47:46.292Z,3.35
2023-05-13T16:50:14.400Z,2.80
2023-05-13T16:52:43.864Z,3.10
2023-05-13T16:55:11.983Z,2.65
2023-05-13T16:57:40.052Z,2.78
2023-05-13T17:00:09.302Z,3.20
2023-05-13T17:02:37.525Z,2.35
2023-05-13T17:05:06.419Z,2.90
2023-05-13T17:07:34.500Z,2.83
2023-05-13T17:10:04.046Z,2.70
2023-05-13T17:12:32.423Z,2.60
2023-05-13T17:15:00.510Z,2.63
2023-05-13T17:17:28.565Z,3.50
2023-05-13T17:19:57.682Z,2.85
2023-05-13T17:22:25.822Z,2.65
2023-05-13T17:24:53.921Z,3.72
2023-05-13T17:27:23.345Z,8.50
2023-05-13T17:29:51.365Z,5.18
2023-05-13T17:32:19.450Z,3.42
2023-05-13T17:34:47.498Z,2.83
2023-05-13T17:37:15.608Z,3.10
2023-05-13T17:39:43.983Z,2.97
2023-05-13T17:42:12.036Z,3.38
2023-05-13T17:44:41.719Z,2.90
2023-05-13T17:47:09.792Z,3.10
2023-05-13T17:49:37.862Z,3.30
2023-05-13T17:52:06.906Z,3.10
2023-05-13T17:54:34.927Z,3.10
2023-05-13T17:57:03.032Z,3.17
2023-05-13T17:59:31.088Z,3.33
2023-05-13T18:02:00.605Z,3.22
2023-05-13T18:04:28.710Z,3.20
2023-05-13T18:06:56.806Z,3.33
2023-05-13T18:09:24.856Z,3.40
2023-05-13T18:11:52.918Z,3.20
2023-05-13T18:14:20.990Z,3.42
2023-05-13T18:16:49.132Z,2.90
2023-05-13T18:19:18.721Z,3.50
2023-05-13T18:21:46.806Z,3.38
2023-05-13T18:24:14.910Z,3.15
2023-05-13T18:26:43.029Z,2.90
2023-05-13T18:29:11.090Z,3.10
2023-05-13T18:31:39.208Z,2.70
2023-05-13T18:34:07.326Z,2.65
2023-05-13T18:36:36.817Z,3.33
2023-05-13T18:39:04.927Z,3.10
2023-05-13T18:41:32.976Z,3.10
2023-05-13T18:44:01.068Z,2.67
2023-05-13T18:46:29.358Z,3.28
2023-05-13T18:48:58.932Z,3.65
2023-05-13T18:51:27.120Z,3.35
2023-05-13T18:53:56.619Z,4.22
2023-05-13T18:56:24.897Z,3.67
2023-05-13T18:58:53.006Z,4.15
2023-05-13T19:01:21.492Z,4.00
2023-05-13T19:03:49.906Z,4.35
2023-05-13T19:06:18.115Z,3.15
2023-05-13T19:08:46.215Z,4.45
2023-05-13T19:11:15.634Z,4.13
2023-05-13T19:13:47.658Z,4.38
2023-05-13T19:16:16.316Z,4.03
2023-05-13T19:18:44.473Z,5.60
2023-05-13T19:21:12.613Z,4.35
2023-05-13T19:23:40.727Z,3.47
2023-05-13T19:26:09.488Z,4.22
2023-05-13T19:28:39.746Z,3.67
2023-05-13T19:31:08.246Z,3.60
2023-05-13T19:33:37.296Z,3.10
2023-05-13T19:36:05.721Z,3.50
2023-05-13T19:38:34.008Z,3.33
2023-05-13T19:41:02.130Z,3.45
2023-05-13T19:43:30.254Z,3.53
2023-05-13T19:45:59.847Z,3.47
2023-05-13T19:48:29.694Z,3.10
2023-05-13T19:50:58.510Z,3.38
2023-05-13T19:53:27.463Z,3.20
2023-05-13T19:55:56.686Z,3.70
2023-05-13T19:58:24.820Z,2.95
2023-05-13T20:00:52.958Z,2.75
2023-05-13T20:03:22.516Z,3.60
2023-05-13T20:05:51.697Z,3.10
2023-05-13T20:08:20.537Z,3.03
2023-05-13T20:10:48.602Z,2.70
2023-05-13T20:13:16.718Z,3.17
2023-05-13T20:15:45.253Z,3.13
2023-05-13T20:18:13.489Z,3.00
2023-05-13T20:20:42.942Z,3.25
2023-05-13T20:23:13.124Z,3.22
2023-05-13T20:25:42.423Z,2.90
2023-05-13T20:28:10.673Z,3.20
2023-05-13T20:30:41.647Z,3.00
2023-05-13T20:33:10.110Z,3.25
2023-05-13T20:35:38.333Z,3.05
2023-05-13T20:38:07.732Z,3.00
2023-05-13T20:40:35.838Z,3.60
2023-05-13T20:43:05.034Z,4.35
2023-05-13T20:45:36.578Z,4.35
2023-05-13T20:48:05.109Z,4.38
2023-05-13T20:50:33.506Z,3.38
2023-05-13T20:53:01.853Z,6.90
2023-05-13T20:55:31.600Z,6.75
2023-05-13T20:57:59.951Z,5.90
2023-05-13T21:00:28.343Z,6.80
2023-05-13T21:02:56.904Z,10.75
2023-05-13T21:05:25.554Z,6.72
2023-05-13T21:07:54.115Z,6.90
2023-05-13T21:10:22.796Z,6.72
2023-05-13T21:12:52.768Z,7.50
2023-05-13T21:15:21.126Z,8.25
2023-05-13T21:17:49.512Z,7.20
2023-05-13T21:20:17.933Z,6.78
2023-05-13T21:22:46.313Z,6.68
2023-05-13T21:25:15.039Z,6.10
2023-05-13T21:27:43.409Z,7.00
2023-05-13T21:30:13.808Z,9.30
2023-05-13T21:32:42.207Z,9.10
2023-05-13T21:35:10.787Z,8.10
2023-05-13T21:37:39.212Z,7.95
2023-05-13T21:40:08.814Z,8.73
2023-05-13T21:42:36.913Z,10.10
2023-05-13T21:45:05.279Z,10.85
2023-05-13T21:47:34.812Z,11.48
2023-05-13T21:50:02.989Z,10.95
2023-05-13T21:52:31.074Z,10.50
2023-05-13T21:54:59.224Z,12.60
2023-05-13T21:57:27.366Z,8.20
2023-05-13T21:59:55.604Z,12.73
2023-05-13T22:02:23.726Z,13.38
2023-05-13T22:04:53.217Z,14.32
2023-05-13T22:07:21.315Z,14.40
2023-05-13T22:09:50.459Z,13.20
2023-05-13T22:12:18.658Z,16.77
2023-05-13T22:14:46.729Z,11.05
2023-05-13T22:17:14.936Z,12.82
2023-05-13T22:19:43.090Z,16.80
2023-05-13T22:22:12.582Z,10.90
2023-05-13T22:24:40.727Z,16.10
2023-05-13T22:27:10.088Z,11.27
2023-05-13T22:29:38.160Z,15.68
2023-05-13T22:32:06.916Z,14.10
2023-05-13T22:34:35.026Z,13.18
2023-05-13T22:37:03.259Z,11.65
2023-05-13T22:39:32.694Z,13.20
2023-05-13T22:42:00.797Z,15.00
2023-05-13T22:44:28.887Z,15.43
2023-05-13T22:46:56.944Z,12.57
2023-05-13T22:49:25.142Z,16.27
2023-05-13T22:51:53.190Z,15.77
2023-05-13T22:54:21.255Z,23.13
2023-05-13T22:56:50.641Z,19.10
2023-05-13T22:59:18.725Z,25.48
2023-05-13T23:01:46.786Z,22.02
2023-05-13T23:04:14.975Z,19.67
2023-05-13T23:06:43.036Z,23.40
2023-05-13T23:09:11.091Z,19.38
2023-05-13T23:11:39.116Z,13.45
2023-05-13T23:14:09.229Z,22.65
2023-05-13T23:16:37.505Z,25.98
2023-05-13T23:19:06.136Z,20.92
2023-05-13T23:21:34.224Z,16.77
2023-05-13T23:24:02.331Z,22.15
2023-05-13T23:26:30.378Z,23.02
2023-05-13T23:28:58.423Z,16.92
2023-05-13T23:31:27.900Z,16.45
2023-05-13T23:33:55.920Z,20.60
2023-05-13T23:36:23.962Z,14.65
2023-05-13T23:38:52.011Z,20.48
2023-05-13T23:41:20.144Z,21.38
2023-05-13T23:43:48.229Z,19.23
2023-05-13T23:46:16.367Z,21.33
2023-05-13T23:48:45.757Z,17.42
2023-05-13T23:51:14.014Z,17.67
2023-05-13T23:53:42.071Z,16.58
2023-05-13T23:56:10.122Z,25.08
2023-05-13T23:58:38.135Z,24.45
